Flight Track Log - Related Links

Times and Time Zones

All times are in EDT time to prevent confusion due to time zone crossing. See the ASQ4577 flight status page for this flight to view local times or setup timezone preferences in your user account.

Time Position Orientation Groundspeed Altitude Reporting Facility
EDT Latitude Longitude Course Direction KTS MPH feet Rate Location/Type
Fri 07:59:22 PM 41.3939 -81.8786 269° West 154 177 1,900  Level Cleveland Center
Fri 07:59:58 PM 41.3936 -81.9089 269° West 183 211 3,200 2,083 Climbing Cleveland Center
Fri 08:00:34 PM 41.4142 -81.9369 314° West 213 245 4,400 2,000 Climbing Cleveland Center
Fri 08:00:58 PM 41.4411 -81.9403 355° North 212 244 5,200 1,714 Climbing Cleveland Center
Fri 08:01:58 PM 41.4997 -81.9306 North 252 290 6,800 1,900 Climbing Cleveland Center
Fri 08:02:58 PM 41.5669 -81.8764 31° Northeast 266 306 9,000 1,900 Climbing Cleveland Center
Fri 08:03:58 PM 41.6386 -81.8167 32° Northeast 295 339 10,600 1,100 Climbing Cleveland Center
Fri 08:04:58 PM 41.7289 -81.7406 32° Northeast 329 379 11,200 600 Climbing Cleveland Center
Fri 08:05:58 PM 41.8194 -81.6614 33° Northeast 369 425 11,800 400 Climbing Cleveland Center
Fri 08:06:58 PM 41.9139 -81.5792 33° Northeast 390 449 12,000 600 Climbing Cleveland Center
Fri 08:07:58 PM 42.0164 -81.5306 19° North 389 448 13,000 1,500 Climbing Cleveland Center
Fri 08:08:58 PM 42.1169 -81.4872 18° North 389 448 15,000 2,000 Climbing Cleveland Center
Fri 08:09:58 PM 42.2131 -81.4439 18° North 378 435 17,000 1,900 Climbing Cleveland Center
Fri 08:10:58 PM 42.3072 -81.3889 23° Northeast 367 422 18,800 1,250 Climbing Cleveland Center
Fri 08:11:58 PM 42.3933 -81.3086 35° Northeast 372 428 19,500 800 Climbing Cleveland Center
Fri 08:12:58 PM 42.4233 -81.1822 72° East 370 426 20,400 1,000 Climbing Cleveland Center
Fri 08:13:58 PM 42.4344 -81.0192 85° East 385 443 21,500 1,100 Climbing Cleveland Center
Fri 08:14:58 PM 42.4472 -80.8617 84° East 410 472 22,600 1,050 Climbing Cleveland Center
Fri 08:15:58 PM 42.4581 -80.7014 85° East 427 491 23,600 1,050 Climbing Cleveland Center
Fri 08:16:58 PM 42.4706 -80.5439 84° East 421 484 24,700 1,050 Climbing Cleveland Center
Fri 08:17:58 PM 42.4808 -80.3778 85° East 426 490 25,700 1,050 Climbing Cleveland Center
Fri 08:18:58 PM 42.4908 -80.2031 86° East 426 490 26,800 650 Climbing Cleveland Center
Fri 08:19:58 PM 42.5028 -80.0397 84° East 426 490 27,000 100 Climbing Cleveland Center
Fri 08:20:58 PM 42.5164 -79.8817 83° East 438 504 27,000  Level Cleveland Center
Fri 08:21:58 PM 42.5278 -79.7097 85° East 452 520 27,000  Level Cleveland Center
Fri 08:22:58 PM 42.5389 -79.5292 85° East 468 539 27,000  Level Cleveland Center
Fri 08:23:58 PM 42.5517 -79.3486 84° East 473 544 27,000  Level Cleveland Center
Fri 08:24:58 PM 42.5600 -79.1653 86° East 479 551 27,000  Level Cleveland Center
Fri 08:25:58 PM 42.5722 -78.9844 85° East 479 551 27,000  Level Cleveland Center
Fri 08:26:58 PM 42.5819 -78.8011 86° East 479 551 27,000  Level Cleveland Center
Fri 08:27:58 PM 42.5914 -78.6175 86° East 479 551 27,000  Level Cleveland Center
Fri 08:28:58 PM 42.6028 -78.4367 85° East 479 551 27,000  Level Cleveland Center
Fri 08:29:58 PM 42.6097 -78.2500 87° East 479 551 27,000  Level Cleveland Center
Fri 08:30:58 PM 42.6203 -78.0664 85° East 479 551 27,000  Level Cleveland Center
Fri 08:31:58 PM 42.6286 -77.8797 86° East 479 551 27,000  Level Cleveland Center
Fri 08:32:58 PM 42.6367 -77.6958 87° East 479 551 27,000  Level Cleveland Center
Fri 08:33:58 PM 42.6467 -77.5119 86° East 484 557 27,000  Level Cleveland Center
Fri 08:35:40 PM 42.6500 -77.1333 89° East 500 575 27,000  Level Toronto Center
Fri 08:36:03 PM 42.6625 -77.1222 33° Northeast 484 557 27,000  Level Boston Center
Fri 08:37:03 PM 42.6697 -76.9392 87° East 484 557 27,000  Level Boston Center
Fri 08:38:03 PM 42.6767 -76.7644 87° East 473 544 27,000  Level Boston Center
Fri 08:39:03 PM 42.6833 -76.5811 87° East 473 544 27,000  Level Boston Center
Fri 08:40:03 PM 42.6900 -76.3981 87° East 478 550 27,000  Level Boston Center
Fri 08:41:03 PM 42.6989 -76.1950 87° East 478 550 27,000 -50 Level Boston Center
Fri 08:42:03 PM 42.7025 -76.0172 88° East 472 543 26,900 -50 Descending Boston Center
Fri 08:43:03 PM 42.7078 -75.8508 87° East 460 529 26,900 50 Level Boston Center
Fri 08:44:03 PM 42.7128 -75.6731 88° East 460 529 27,000 -700 Climbing Boston Center
Fri 08:45:03 PM 42.7158 -75.4950 89° East 460 529 25,500 -2,100 Descending Boston Center
Fri 08:46:03 PM 42.7225 -75.3172 87° East 460 529 22,800 -2,600 Descending Boston Center
Fri 08:47:03 PM 42.7247 -75.1450 89° East 460 529 20,300 -2,450 Descending Boston Center
Fri 08:48:03 PM 42.7283 -74.9811 88° East 455 524 17,900 -2,350 Descending Boston Center
Fri 08:49:03 PM 42.7319 -74.8200 88° East 433 498 15,600 -2,325 Descending Boston Center
Fri 08:49:23 PM 42.7328 -74.7750 89° East 400 460 14,800 -2,400 Descending Boston Center
Fri 08:50:03 PM 42.7350 -74.6733 88° East 399 459 13,200 -2,176 Descending Boston Center
Fri 08:50:54 PM 42.7372 -74.5461 89° East 391 450 11,500 -1,568 Descending Boston Center
Fri 08:51:54 PM 42.7397 -74.4133 88° East 348 400 10,300 -1,395 Descending Boston Center
Fri 08:53:03 PM 42.7419 -74.2750 89° East 326 375 8,500 -1,628 Descending Boston Center
Fri 08:54:03 PM 42.7458 -74.1589 87° East 302 348 6,800 -1,850 Descending Boston Center
Fri 08:54:50 PM 42.7617 -74.0775 75° East 281 323 5,200 -1,833 Descending Boston Center
Fri 08:55:51 PM 42.7839 -73.9875 71° East 248 285 3,500 -1,339 Descending Boston Center
Fri 08:56:51 PM 42.8036 -73.9117 70° East 204 235 2,500 -843 Descending Boston Center
Fri 08:57:52 PM 42.8147 -73.8411 78° East 170 196 1,800 -836 Descending Boston Center
Fri 08:58:53 PM 42.7881 -73.8094 139° Southeast 105 121 800 -984 Descending Boston Center

Login

Don't have an account? Register now (free) for customized features, flight alerts, and more!